sensor_id;sensor_type;location;lat;lon;timestamp;pressure;altitude;pressure_sealevel;temperature;humidity
8717;BME280;4395;48.554;8.820;2023-10-31T00:01:13;94416.25;;;10.17;82.11
8717;BME280;4395;48.554;8.820;2023-10-31T00:03:16;94409.13;;;10.08;81.32
8717;BME280;4395;48.554;8.820;2023-10-31T00:05:19;94411.16;;;10.11;81.76
8717;BME280;4395;48.554;8.820;2023-10-31T00:07:24;94401.41;;;10.03;80.87
8717;BME280;4395;48.554;8.820;2023-10-31T00:09:26;94412.84;;;10.02;81.06
8717;BME280;4395;48.554;8.820;2023-10-31T00:11:29;94412.84;;;10.02;81.12
8717;BME280;4395;48.554;8.820;2023-10-31T00:13:32;94415.47;;;10.02;79.52
8717;BME280;4395;48.554;8.820;2023-10-31T00:15:35;94424.91;;;9.98;79.59
8717;BME280;4395;48.554;8.820;2023-10-31T00:17:38;94423.34;;;9.97;80.56
8717;BME280;4395;48.554;8.820;2023-10-31T00:19:41;94431.22;;;9.92;80.59
8717;BME280;4395;48.554;8.820;2023-10-31T00:21:43;94432.50;;;9.95;80.16
8717;BME280;4395;48.554;8.820;2023-10-31T00:23:48;94430.28;;;9.88;79.96
8717;BME280;4395;48.554;8.820;2023-10-31T00:25:51;94434.41;;;9.89;80.62
8717;BME280;4395;48.554;8.820;2023-10-31T00:27:54;94433.94;;;9.87;80.42
8717;BME280;4395;48.554;8.820;2023-10-31T00:29:57;94442.22;;;9.89;80.54
8717;BME280;4395;48.554;8.820;2023-10-31T00:32:00;94443.00;;;9.90;80.91
8717;BME280;4395;48.554;8.820;2023-10-31T00:34:05;94437.78;;;9.90;80.18
8717;BME280;4395;48.554;8.820;2023-10-31T00:36:09;94442.22;;;9.89;80.34
8717;BME280;4395;48.554;8.820;2023-10-31T00:38:15;94445.66;;;9.85;80.74
8717;BME280;4395;48.554;8.820;2023-10-31T00:40:19;94450.56;;;9.86;79.75
8717;BME280;4395;48.554;8.820;2023-10-31T00:42:21;94441.50;;;9.84;79.92
8717;BME280;4395;48.554;8.820;2023-10-31T00:44:24;94443.72;;;9.77;80.10
8717;BME280;4395;48.554;8.820;2023-10-31T00:46:27;94459.59;;;9.75;80.17
8717;BME280;4395;48.554;8.820;2023-10-31T00:48:29;94451.56;;;9.71;80.06
8717;BME280;4395;48.554;8.820;2023-10-31T00:50:37;94447.72;;;9.69;79.73
8717;BME280;4395;48.554;8.820;2023-10-31T00:52:40;94443.56;;;9.68;79.53
8717;BME280;4395;48.554;8.820;2023-10-31T00:54:44;94444.69;;;9.62;79.26
8717;BME280;4395;48.554;8.820;2023-10-31T00:56:48;94446.31;;;9.58;79.63
8717;BME280;4395;48.554;8.820;2023-10-31T00:58:51;94469.00;;;9.52;79.20
8717;BME280;4395;48.554;8.820;2023-10-31T01:00:53;94467.78;;;9.45;79.49
8717;BME280;4395;48.554;8.820;2023-10-31T01:02:56;94468.94;;;9.38;79.64
8717;BME280;4395;48.554;8.820;2023-10-31T01:04:58;94465.63;;;9.33;79.87
8717;BME280;4395;48.554;8.820;2023-10-31T01:07:01;94467.25;;;9.29;80.08
8717;BME280;4395;48.554;8.820;2023-10-31T01:09:04;94480.00;;;9.25;80.00
8717;BME280;4395;48.554;8.820;2023-10-31T01:11:07;94463.66;;;9.25;80.12
8717;BME280;4395;48.554;8.820;2023-10-31T01:13:11;94472.50;;;9.24;79.83
8717;BME280;4395;48.554;8.820;2023-10-31T01:15:13;94475.91;;;9.19;79.75
8717;BME280;4395;48.554;8.820;2023-10-31T01:17:16;94468.69;;;9.16;79.79
8717;BME280;4395;48.554;8.820;2023-10-31T01:19:18;94468.19;;;9.14;79.86
8717;BME280;4395;48.554;8.820;2023-10-31T01:21:21;94476.50;;;9.16;79.38
8717;BME280;4395;48.554;8.820;2023-10-31T01:23:24;94486.88;;;9.16;79.43
8717;BME280;4395;48.554;8.820;2023-10-31T01:25:27;94491.03;;;9.17;79.17
8717;BME280;4395;48.554;8.820;2023-10-31T01:27:30;94491.50;;;9.19;79.24
8717;BME280;4395;48.554;8.820;2023-10-31T01:29:34;94500.00;;;9.25;79.35
8717;BME280;4395;48.554;8.820;2023-10-31T01:31:37;94497.69;;;9.23;79.51
8717;BME280;4395;48.554;8.820;2023-10-31T01:33:46;94493.50;;;9.27;80.26
8717;BME280;4395;48.554;8.820;2023-10-31T01:35:49;94501.22;;;9.32;80.23
8717;BME280;4395;48.554;8.820;2023-10-31T01:37:52;94503.47;;;9.39;80.04
8717;BME280;4395;48.554;8.820;2023-10-31T01:39:55;94513.00;;;9.44;80.25
8717;BME280;4395;48.554;8.820;2023-10-31T01:41:58;94509.59;;;9.48;80.31
8717;BME280;4395;48.554;8.820;2023-10-31T01:44:01;94503.25;;;9.54;79.91
8717;BME280;4395;48.554;8.820;2023-10-31T01:46:07;94510.22;;;9.59;79.67
8717;BME280;4395;48.554;8.820;2023-10-31T01:48:10;94512.00;;;9.63;79.53
8717;BME280;4395;48.554;8.820;2023-10-31T01:50:13;94509.91;;;9.65;79.14
8717;BME280;4395;48.554;8.820;2023-10-31T01:52:16;94510.66;;;9.66;79.20
8717;BME280;4395;48.554;8.820;2023-10-31T01:54:19;94506.44;;;9.70;79.20
8717;BME280;4395;48.554;8.820;2023-10-31T01:56:22;94505.09;;;9.72;79.08
8717;BME280;4395;48.554;8.820;2023-10-31T01:58:28;94499.34;;;9.75;79.26
8717;BME280;4395;48.554;8.820;2023-10-31T02:00:30;94508.38;;;9.78;79.02
8717;BME280;4395;48.554;8.820;2023-10-31T02:02:35;94521.88;;;9.80;78.95
8717;BME280;4395;48.554;8.820;2023-10-31T02:04:39;94518.22;;;9.81;79.03
8717;BME280;4395;48.554;8.820;2023-10-31T02:06:42;94519.22;;;9.85;78.56
8717;BME280;4395;48.554;8.820;2023-10-31T02:08:44;94529.06;;;9.88;78.98
8717;BME280;4395;48.554;8.820;2023-10-31T02:10:47;94535.03;;;9.89;78.64
8717;BME280;4395;48.554;8.820;2023-10-31T02:12:50;94540.44;;;9.92;77.67
8717;BME280;4395;48.554;8.820;2023-10-31T02:14:53;94541.19;;;9.93;78.29
8717;BME280;4395;48.554;8.820;2023-10-31T02:16:55;94541.47;;;9.91;78.11
8717;BME280;4395;48.554;8.820;2023-10-31T02:18:59;94540.53;;;9.87;77.71
8717;BME280;4395;48.554;8.820;2023-10-31T02:21:02;94541.34;;;9.83;77.57
8717;BME280;4395;48.554;8.820;2023-10-31T02:23:07;94542.69;;;9.80;77.74
8717;BME280;4395;48.554;8.820;2023-10-31T02:25:16;94545.38;;;9.75;77.09
8717;BME280;4395;48.554;8.820;2023-10-31T02:27:19;94548.50;;;9.72;78.04
8717;BME280;4395;48.554;8.820;2023-10-31T02:29:22;94549.06;;;9.69;78.10
8717;BME280;4395;48.554;8.820;2023-10-31T02:31:24;94555.31;;;9.68;78.70
8717;BME280;4395;48.554;8.820;2023-10-31T02:33:27;94549.34;;;9.67;79.31
8717;BME280;4395;48.554;8.820;2023-10-31T02:35:31;94543.47;;;9.62;79.40
8717;BME280;4395;48.554;8.820;2023-10-31T02:37:34;94547.94;;;9.56;79.37
8717;BME280;4395;48.554;8.820;2023-10-31T02:39:38;94552.94;;;9.53;79.75
8717;BME280;4395;48.554;8.820;2023-10-31T02:41:41;94550.88;;;9.50;80.01
8717;BME280;4395;48.554;8.820;2023-10-31T02:43:43;94564.44;;;9.47;80.67
8717;BME280;4395;48.554;8.820;2023-10-31T02:45:47;94561.91;;;9.42;80.34
8717;BME280;4395;48.554;8.820;2023-10-31T02:47:49;94555.47;;;9.34;80.56
8717;BME280;4395;48.554;8.820;2023-10-31T02:49:52;94560.25;;;9.27;80.44
8717;BME280;4395;48.554;8.820;2023-10-31T02:51:55;94566.34;;;9.17;79.95
8717;BME280;4395;48.554;8.820;2023-10-31T02:53:57;94565.09;;;9.10;80.16
8717;BME280;4395;48.554;8.820;2023-10-31T02:56:02;94567.53;;;9.01;80.33
8717;BME280;4395;48.554;8.820;2023-10-31T02:58:06;94566.81;;;8.95;80.23
8717;BME280;4395;48.554;8.820;2023-10-31T03:00:10;94557.25;;;8.91;81.05
8717;BME280;4395;48.554;8.820;2023-10-31T03:02:13;94560.91;;;8.90;81.09
8717;BME280;4395;48.554;8.820;2023-10-31T03:04:16;94569.72;;;8.89;80.99
8717;BME280;4395;48.554;8.820;2023-10-31T03:06:18;94566.09;;;8.90;81.36
8717;BME280;4395;48.554;8.820;2023-10-31T03:08:21;94571.22;;;8.95;80.63
8717;BME280;4395;48.554;8.820;2023-10-31T03:10:25;94564.78;;;8.92;80.31
8717;BME280;4395;48.554;8.820;2023-10-31T03:12:29;94572.84;;;8.91;80.60
8717;BME280;4395;48.554;8.820;2023-10-31T03:14:32;94571.81;;;8.87;80.79
8717;BME280;4395;48.554;8.820;2023-10-31T03:16:34;94557.81;;;8.88;80.54
8717;BME280;4395;48.554;8.820;2023-10-31T03:18:37;94564.78;;;8.92;80.83
8717;BME280;4395;48.554;8.820;2023-10-31T03:20:39;94569.13;;;8.97;80.90
8717;BME280;4395;48.554;8.820;2023-10-31T03:22:43;94573.78;;;9.00;80.75
8717;BME280;4395;48.554;8.820;2023-10-31T03:24:46;94573.75;;;9.05;80.83
8717;BME280;4395;48.554;8.820;2023-10-31T03:26:49;94585.88;;;9.10;80.84
8717;BME280;4395;48.554;8.820;2023-10-31T03:28:53;94585.34;;;9.13;80.70
8717;BME280;4395;48.554;8.820;2023-10-31T03:30:58;94589.47;;;9.14;80.65
8717;BME280;4395;48.554;8.820;2023-10-31T03:33:01;94598.53;;;9.16;80.41
8717;BME280;4395;48.554;8.820;2023-10-31T03:35:05;94600.38;;;9.16;80.40
8717;BME280;4395;48.554;8.820;2023-10-31T03:37:08;94598.03;;;9.14;80.71
8717;BME280;4395;48.554;8.820;2023-10-31T03:39:11;94606.59;;;9.15;80.54
8717;BME280;4395;48.554;8.820;2023-10-31T03:41:14;94605.34;;;9.12;80.69
8717;BME280;4395;48.554;8.820;2023-10-31T03:43:16;94604.81;;;9.10;80.56
8717;BME280;4395;48.554;8.820;2023-10-31T03:45:21;94605.38;;;9.07;80.02
8717;BME280;4395;48.554;8.820;2023-10-31T03:47:23;94608.03;;;9.02;80.17
8717;BME280;4395;48.554;8.820;2023-10-31T03:49:25;94610.13;;;9.00;80.12
8717;BME280;4395;48.554;8.820;2023-10-31T03:51:28;94608.59;;;8.94;80.02
8717;BME280;4395;48.554;8.820;2023-10-31T03:53:30;94607.63;;;8.90;80.37
8717;BME280;4395;48.554;8.820;2023-10-31T03:55:33;94611.81;;;8.86;80.05
8717;BME280;4395;48.554;8.820;2023-10-31T03:57:36;94605.59;;;8.82;80.44
8717;BME280;4395;48.554;8.820;2023-10-31T03:59:39;94600.22;;;8.78;80.57
8717;BME280;4395;48.554;8.820;2023-10-31T04:01:43;94605.16;;;8.75;80.69
8717;BME280;4395;48.554;8.820;2023-10-31T04:03:46;94617.63;;;8.73;80.41
8717;BME280;4395;48.554;8.820;2023-10-31T04:05:48;94622.56;;;8.74;80.48
8717;BME280;4395;48.554;8.820;2023-10-31T04:07:50;94619.19;;;8.74;80.47
8717;BME280;4395;48.554;8.820;2023-10-31T04:09:54;94623.06;;;8.76;80.71
8717;BME280;4395;48.554;8.820;2023-10-31T04:11:56;94624.59;;;8.77;80.84
8717;BME280;4395;48.554;8.820;2023-10-31T04:13:59;94623.84;;;8.77;80.55
8717;BME280;4395;48.554;8.820;2023-10-31T04:16:01;94618.66;;;8.72;80.18
8717;BME280;4395;48.554;8.820;2023-10-31T04:18:05;94620.03;;;8.64;80.20
8717;BME280;4395;48.554;8.820;2023-10-31T04:20:08;94619.59;;;8.57;80.42
8717;BME280;4395;48.554;8.820;2023-10-31T04:22:11;94615.72;;;8.54;80.87
8717;BME280;4395;48.554;8.820;2023-10-31T04:24:14;94618.03;;;8.56;80.64
8717;BME280;4395;48.554;8.820;2023-10-31T04:26:17;94618.31;;;8.54;80.75
8717;BME280;4395;48.554;8.820;2023-10-31T04:28:20;94627.66;;;8.55;80.54
8717;BME280;4395;48.554;8.820;2023-10-31T04:30:22;94634.13;;;8.53;80.78
8717;BME280;4395;48.554;8.820;2023-10-31T04:32:25;94637.53;;;8.48;80.72
8717;BME280;4395;48.554;8.820;2023-10-31T04:34:28;94632.84;;;8.50;80.52
8717;BME280;4395;48.554;8.820;2023-10-31T04:36:31;94635.22;;;8.47;80.62
8717;BME280;4395;48.554;8.820;2023-10-31T04:38:36;94624.63;;;8.43;80.53
8717;BME280;4395;48.554;8.820;2023-10-31T04:40:39;94619.97;;;8.40;80.69
8717;BME280;4395;48.554;8.820;2023-10-31T04:42:42;94622.56;;;8.35;80.84
8717;BME280;4395;48.554;8.820;2023-10-31T04:44:45;94617.94;;;8.32;81.02
8717;BME280;4395;48.554;8.820;2023-10-31T04:46:48;94619.50;;;8.28;81.25
8717;BME280;4395;48.554;8.820;2023-10-31T04:48:51;94617.69;;;8.23;80.95
8717;BME280;4395;48.554;8.820;2023-10-31T04:50:55;94624.22;;;8.21;80.95
8717;BME280;4395;48.554;8.820;2023-10-31T04:52:58;94622.66;;;8.20;80.65
8717;BME280;4395;48.554;8.820;2023-10-31T04:55:01;94620.59;;;8.17;80.50
8717;BME280;4395;48.554;8.820;2023-10-31T04:57:04;94634.09;;;8.19;80.84
8717;BME280;4395;48.554;8.820;2023-10-31T04:59:07;94625.78;;;8.17;80.90
8717;BME280;4395;48.554;8.820;2023-10-31T05:01:11;94623.19;;;8.17;80.73
8717;BME280;4395;48.554;8.820;2023-10-31T05:03:14;94627.34;;;8.18;80.82
8717;BME280;4395;48.554;8.820;2023-10-31T05:05:19;94624.69;;;8.23;80.58
8717;BME280;4395;48.554;8.820;2023-10-31T05:07:23;94637.19;;;8.21;80.54
8717;BME280;4395;48.554;8.820;2023-10-31T05:09:27;94642.91;;;8.18;80.77
8717;BME280;4395;48.554;8.820;2023-10-31T05:11:30;94647.56;;;8.21;80.81
8717;BME280;4395;48.554;8.820;2023-10-31T05:13:32;94652.75;;;8.21;80.33
8717;BME280;4395;48.554;8.820;2023-10-31T05:15:34;94664.69;;;8.17;79.34
8717;BME280;4395;48.554;8.820;2023-10-31T05:17:37;94663.41;;;8.14;79.67
8717;BME280;4395;48.554;8.820;2023-10-31T05:19:40;94666.25;;;8.13;79.97
8717;BME280;4395;48.554;8.820;2023-10-31T05:21:43;94665.75;;;8.11;79.96
8717;BME280;4395;48.554;8.820;2023-10-31T05:23:47;94669.88;;;8.12;80.01
8717;BME280;4395;48.554;8.820;2023-10-31T05:25:50;94667.56;;;8.10;79.76
8717;BME280;4395;48.554;8.820;2023-10-31T05:27:53;94664.47;;;8.08;79.22
8717;BME280;4395;48.554;8.820;2023-10-31T05:29:56;94664.50;;;8.03;79.21
8717;BME280;4395;48.554;8.820;2023-10-31T05:31:59;94666.31;;;8.03;79.13
8717;BME280;4395;48.554;8.820;2023-10-31T05:34:02;94677.19;;;8.00;79.76
8717;BME280;4395;48.554;8.820;2023-10-31T05:36:16;94676.97;;;7.96;79.12
8717;BME280;4395;48.554;8.820;2023-10-31T05:38:19;94676.72;;;7.92;79.38
8717;BME280;4395;48.554;8.820;2023-10-31T05:40:23;94674.13;;;7.92;79.42
8717;BME280;4395;48.554;8.820;2023-10-31T05:42:28;94670.00;;;7.91;79.46
8717;BME280;4395;48.554;8.820;2023-10-31T05:44:30;94668.44;;;7.90;79.29
8717;BME280;4395;48.554;8.820;2023-10-31T05:46:37;94670.50;;;7.88;79.87
8717;BME280;4395;48.554;8.820;2023-10-31T05:48:39;94669.50;;;7.84;79.78
8717;BME280;4395;48.554;8.820;2023-10-31T05:50:43;94673.91;;;7.84;79.76
8717;BME280;4395;48.554;8.820;2023-10-31T05:52:45;94680.16;;;7.83;79.90
8717;BME280;4395;48.554;8.820;2023-10-31T05:54:49;94687.13;;;7.82;79.96
8717;BME280;4395;48.554;8.820;2023-10-31T05:56:53;94688.69;;;7.83;79.72
8717;BME280;4395;48.554;8.820;2023-10-31T05:58:56;94699.59;;;7.80;79.76
8717;BME280;4395;48.554;8.820;2023-10-31T06:00:57;94698.28;;;7.78;80.02
8717;BME280;4395;48.554;8.820;2023-10-31T06:03:00;94696.72;;;7.82;80.09
8717;BME280;4395;48.554;8.820;2023-10-31T06:05:05;94702.06;;;8.06;79.83
8717;BME280;4395;48.554;8.820;2023-10-31T06:07:10;94705.19;;;8.08;79.58
8717;BME280;4395;48.554;8.820;2023-10-31T06:09:13;94705.19;;;8.08;79.20
8717;BME280;4395;48.554;8.820;2023-10-31T06:11:16;94705.19;;;8.08;79.50
8717;BME280;4395;48.554;8.820;2023-10-31T06:13:20;94702.59;;;8.08;79.07
8717;BME280;4395;48.554;8.820;2023-10-31T06:15:23;94701.56;;;8.09;78.73
8717;BME280;4395;48.554;8.820;2023-10-31T06:17:25;94707.72;;;8.18;78.68
8717;BME280;4395;48.554;8.820;2023-10-31T06:19:28;94713.38;;;8.25;78.90
8717;BME280;4395;48.554;8.820;2023-10-31T06:21:31;94706.41;;;8.70;79.36
8717;BME280;4395;48.554;8.820;2023-10-31T06:23:34;94711.91;;;8.63;78.23
8717;BME280;4395;48.554;8.820;2023-10-31T06:25:37;94718.44;;;8.55;77.76
8717;BME280;4395;48.554;8.820;2023-10-31T06:27:38;94725.72;;;8.48;78.17
8717;BME280;4395;48.554;8.820;2023-10-31T06:29:42;94725.25;;;8.41;78.30
8717;BME280;4395;48.554;8.820;2023-10-31T06:32:06;94731.25;;;8.37;78.50
8717;BME280;4395;48.554;8.820;2023-10-31T06:34:11;94731.03;;;8.33;78.93
8717;BME280;4395;48.554;8.820;2023-10-31T06:36:14;94739.31;;;8.30;78.85
8717;BME280;4395;48.554;8.820;2023-10-31T06:38:17;94741.91;;;8.30;78.80
8717;BME280;4395;48.554;8.820;2023-10-31T06:40:19;94741.66;;;8.26;79.24
8717;BME280;4395;48.554;8.820;2023-10-31T06:42:22;94740.59;;;8.27;79.35
8717;BME280;4395;48.554;8.820;2023-10-31T06:44:25;94745.00;;;8.27;79.43
8717;BME280;4395;48.554;8.820;2023-10-31T06:46:29;94746.03;;;8.31;79.75
8717;BME280;4395;48.554;8.820;2023-10-31T06:48:31;94751.50;;;8.29;79.88
8717;BME280;4395;48.554;8.820;2023-10-31T06:50:34;94747.63;;;8.32;79.88
8717;BME280;4395;48.554;8.820;2023-10-31T06:52:36;94756.19;;;8.33;79.96
8717;BME280;4395;48.554;8.820;2023-10-31T06:54:39;94761.06;;;8.34;79.91
8717;BME280;4395;48.554;8.820;2023-10-31T06:56:42;94767.03;;;8.35;80.14
8717;BME280;4395;48.554;8.820;2023-10-31T06:58:45;94761.06;;;8.34;80.49
8717;BME280;4395;48.554;8.820;2023-10-31T07:00:47;94766.00;;;8.36;80.31
8717;BME280;4395;48.554;8.820;2023-10-31T07:02:51;94766.78;;;8.36;80.57
8717;BME280;4395;48.554;8.820;2023-10-31T07:04:54;94771.94;;;8.41;80.74
8717;BME280;4395;48.554;8.820;2023-10-31T07:06:59;94774.28;;;8.43;80.72
8717;BME280;4395;48.554;8.820;2023-10-31T07:09:02;94771.44;;;8.44;80.78
8717;BME280;4395;48.554;8.820;2023-10-31T07:11:07;94776.84;;;8.48;80.69
8717;BME280;4395;48.554;8.820;2023-10-31T07:13:09;94781.50;;;8.51;80.72
8717;BME280;4395;48.554;8.820;2023-10-31T07:15:12;94787.47;;;8.56;80.72
8717;BME280;4395;48.554;8.820;2023-10-31T07:17:14;94786.38;;;8.57;80.43
8717;BME280;4395;48.554;8.820;2023-10-31T07:19:18;94782.28;;;8.56;80.26
8717;BME280;4395;48.554;8.820;2023-10-31T07:21:21;94783.31;;;8.55;80.36
8717;BME280;4395;48.554;8.820;2023-10-31T07:23:23;94777.03;;;8.61;80.37
8717;BME280;4395;48.554;8.820;2023-10-31T07:25:26;94790.00;;;8.66;80.24
8717;BME280;4395;48.554;8.820;2023-10-31T07:27:29;94787.34;;;8.72;80.21
8717;BME280;4395;48.554;8.820;2023-10-31T07:29:32;94784.50;;;8.73;80.06
8717;BME280;4395;48.554;8.820;2023-10-31T07:31:35;94795.91;;;8.77;80.13
8717;BME280;4395;48.554;8.820;2023-10-31T07:33:40;94801.34;;;8.81;79.77
8717;BME280;4395;48.554;8.820;2023-10-31T07:35:44;94798.19;;;8.84;80.19
8717;BME280;4395;48.554;8.820;2023-10-31T07:37:47;94793.50;;;8.86;80.04
8717;BME280;4395;48.554;8.820;2023-10-31T07:39:48;94799.72;;;8.90;80.06
8717;BME280;4395;48.554;8.820;2023-10-31T07:41:52;94800.72;;;8.94;79.90
8717;BME280;4395;48.554;8.820;2023-10-31T07:43:54;94800.69;;;8.99;79.54
8717;BME280;4395;48.554;8.820;2023-10-31T07:45:56;94795.47;;;9.04;79.52
8717;BME280;4395;48.554;8.820;2023-10-31T07:47:59;94797.81;;;9.06;79.80
8717;BME280;4395;48.554;8.820;2023-10-31T07:50:04;94805.88;;;9.04;79.07
8717;BME280;4395;48.554;8.820;2023-10-31T07:52:09;94808.19;;;9.06;79.39
8717;BME280;4395;48.554;8.820;2023-10-31T07:54:11;94815.94;;;9.11;79.59
8717;BME280;4395;48.554;8.820;2023-10-31T07:56:17;94813.06;;;9.17;79.53
8717;BME280;4395;48.554;8.820;2023-10-31T07:58:24;94824.94;;;9.23;79.31
8717;BME280;4395;48.554;8.820;2023-10-31T08:00:27;94824.91;;;9.28;79.47
8717;BME280;4395;48.554;8.820;2023-10-31T08:02:30;94816.03;;;9.34;79.08
8717;BME280;4395;48.554;8.820;2023-10-31T08:04:32;94822.78;;;9.35;78.86
8717;BME280;4395;48.554;8.820;2023-10-31T08:06:35;94829.53;;;9.36;78.39
8717;BME280;4395;48.554;8.820;2023-10-31T08:08:39;94825.38;;;9.35;78.35
8717;BME280;4395;48.554;8.820;2023-10-31T08:10:42;94826.41;;;9.39;78.66
8717;BME280;4395;48.554;8.820;2023-10-31T08:12:45;94832.09;;;9.42;78.63
8717;BME280;4395;48.554;8.820;2023-10-31T08:14:48;94824.25;;;9.47;78.29
8717;BME280;4395;48.554;8.820;2023-10-31T08:16:51;94828.91;;;9.50;78.34
8717;BME280;4395;48.554;8.820;2023-10-31T08:18:53;94828.91;;;9.50;78.66
8717;BME280;4395;48.554;8.820;2023-10-31T08:20:56;94833.00;;;9.56;78.27
8717;BME280;4395;48.554;8.820;2023-10-31T08:22:59;94831.97;;;9.57;78.48
8717;BME280;4395;48.554;8.820;2023-10-31T08:25:03;94839.22;;;9.60;78.43
8717;BME280;4395;48.554;8.820;2023-10-31T08:27:06;94838.19;;;9.61;78.13
8717;BME280;4395;48.554;8.820;2023-10-31T08:29:09;94840.75;;;9.66;78.09
8717;BME280;4395;48.554;8.820;2023-10-31T08:31:12;94840.19;;;9.69;77.82
8717;BME280;4395;48.554;8.820;2023-10-31T08:33:15;94837.06;;;9.67;77.78
8717;BME280;4395;48.554;8.820;2023-10-31T08:35:18;94842.28;;;9.67;77.79
8717;BME280;4395;48.554;8.820;2023-10-31T08:37:20;94852.13;;;9.70;78.19
8717;BME280;4395;48.554;8.820;2023-10-31T08:39:23;94847.88;;;9.79;78.31
8717;BME280;4395;48.554;8.820;2023-10-31T08:41:27;94854.53;;;9.90;77.95
8717;BME280;4395;48.554;8.820;2023-10-31T08:43:30;94856.56;;;9.98;77.21
8717;BME280;4395;48.554;8.820;2023-10-31T08:45:32;94852.91;;;9.99;76.56
8717;BME280;4395;48.554;8.820;2023-10-31T08:47:35;94853.63;;;10.05;77.00
8717;BME280;4395;48.554;8.820;2023-10-31T08:49:37;94852.28;;;10.13;76.79
8717;BME280;4395;48.554;8.820;2023-10-31T08:51:40;94850.66;;;10.22;76.53
8717;BME280;4395;48.554;8.820;2023-10-31T08:53:41;94851.66;;;10.26;76.17
8717;BME280;4395;48.554;8.820;2023-10-31T08:55:44;94850.56;;;10.27;75.89
8717;BME280;4395;48.554;8.820;2023-10-31T08:57:48;94856.75;;;10.36;75.29
8717;BME280;4395;48.554;8.820;2023-10-31T08:59:53;94857.41;;;10.46;75.66
8717;BME280;4395;48.554;8.820;2023-10-31T09:01:56;94857.13;;;10.48;74.71
8717;BME280;4395;48.554;8.820;2023-10-31T09:03:59;94860.06;;;10.41;74.08
8717;BME280;4395;48.554;8.820;2023-10-31T09:06:03;94860.31;;;10.40;73.82
8717;BME280;4395;48.554;8.820;2023-10-31T09:08:07;94861.38;;;10.39;74.23
8717;BME280;4395;48.554;8.820;2023-10-31T09:10:09;94855.09;;;10.45;74.25
8717;BME280;4395;48.554;8.820;2023-10-31T09:12:12;94857.41;;;10.46;74.41
8717;BME280;4395;48.554;8.820;2023-10-31T09:14:16;94864.03;;;10.58;74.73
8717;BME280;4395;48.554;8.820;2023-10-31T09:16:19;94857.16;;;10.67;74.13
8717;BME280;4395;48.554;8.820;2023-10-31T09:18:22;94851.06;;;10.76;73.15
8717;BME280;4395;48.554;8.820;2023-10-31T09:20:25;94852.41;;;10.93;73.19
8717;BME280;4395;48.554;8.820;2023-10-31T09:22:29;94856.72;;;11.02;73.19
8717;BME280;4395;48.554;8.820;2023-10-31T09:24:33;94864.66;;;11.11;71.97
8717;BME280;4395;48.554;8.820;2023-10-31T09:26:35;94869.69;;;11.26;72.55
8717;BME280;4395;48.554;8.820;2023-10-31T09:28:39;94862.50;;;11.37;71.43
8717;BME280;4395;48.554;8.820;2023-10-31T09:30:45;94853.88;;;11.36;69.94
8717;BME280;4395;48.554;8.820;2023-10-31T09:32:48;94858.63;;;11.34;70.70
8717;BME280;4395;48.554;8.820;2023-10-31T09:34:51;94854.94;;;11.35;70.86
8717;BME280;4395;48.554;8.820;2023-10-31T09:36:53;94858.97;;;11.46;70.36
8717;BME280;4395;48.554;8.820;2023-10-31T09:38:57;94873.88;;;11.60;69.83
8717;BME280;4395;48.554;8.820;2023-10-31T09:41:00;94857.84;;;11.52;68.47
8717;BME280;4395;48.554;8.820;2023-10-31T09:43:02;94859.88;;;11.55;68.55
8717;BME280;4395;48.554;8.820;2023-10-31T09:45:06;94866.38;;;11.58;69.37
8717;BME280;4395;48.554;8.820;2023-10-31T09:47:10;94860.84;;;11.60;69.21
8717;BME280;4395;48.554;8.820;2023-10-31T09:49:13;94866.22;;;11.49;68.39
8717;BME280;4395;48.554;8.820;2023-10-31T09:51:15;94865.47;;;11.30;68.68
8717;BME280;4395;48.554;8.820;2023-10-31T09:53:19;94866.09;;;11.22;69.22
8717;BME280;4395;48.554;8.820;2023-10-31T09:55:24;94863.84;;;11.34;70.09
8717;BME280;4395;48.554;8.820;2023-10-31T09:57:26;94871.78;;;11.24;69.14
8717;BME280;4395;48.554;8.820;2023-10-31T09:59:29;94855.81;;;11.31;69.92
8717;BME280;4395;48.554;8.820;2023-10-31T10:01:35;94856.16;;;11.43;69.76
8717;BME280;4395;48.554;8.820;2023-10-31T10:03:40;94853.78;;;11.60;69.82
8717;BME280;4395;48.554;8.820;2023-10-31T10:05:44;94852.38;;;11.68;68.93
8717;BME280;4395;48.554;8.820;2023-10-31T10:07:46;94853.94;;;11.69;68.97
8717;BME280;4395;48.554;8.820;2023-10-31T10:09:49;94854.50;;;11.66;68.99
8717;BME280;4395;48.554;8.820;2023-10-31T10:11:52;94851.69;;;11.62;70.10
8717;BME280;4395;48.554;8.820;2023-10-31T10:13:57;94852.66;;;11.66;69.16
8717;BME280;4395;48.554;8.820;2023-10-31T10:16:00;94849.84;;;11.81;70.09
8717;BME280;4395;48.554;8.820;2023-10-31T10:18:03;94853.75;;;11.98;70.35
8717;BME280;4395;48.554;8.820;2023-10-31T10:20:09;94861.44;;;11.89;68.11
8717;BME280;4395;48.554;8.820;2023-10-31T10:22:12;94867.22;;;11.86;68.87
8717;BME280;4395;48.554;8.820;2023-10-31T10:24:16;94863.94;;;11.80;68.22
8717;BME280;4395;48.554;8.820;2023-10-31T10:26:18;94860.34;;;11.76;68.94
8717;BME280;4395;48.554;8.820;2023-10-31T10:28:25;94868.41;;;11.80;68.03
8717;BME280;4395;48.554;8.820;2023-10-31T10:30:28;94876.13;;;11.85;68.32
8717;BME280;4395;48.554;8.820;2023-10-31T10:32:31;94880.56;;;11.84;68.88
8717;BME280;4395;48.554;8.820;2023-10-31T10:34:34;94875.47;;;11.93;69.26
8717;BME280;4395;48.554;8.820;2023-10-31T10:36:39;94875.97;;;11.95;68.78
8717;BME280;4395;48.554;8.820;2023-10-31T10:38:43;94877.16;;;12.03;68.93
8717;BME280;4395;48.554;8.820;2023-10-31T10:40:48;94873.31;;;12.14;68.70
8717;BME280;4395;48.554;8.820;2023-10-31T10:42:55;94893.13;;;12.15;68.23
8717;BME280;4395;48.554;8.820;2023-10-31T10:45:03;94881.41;;;12.12;69.17
8717;BME280;4395;48.554;8.820;2023-10-31T10:47:07;94884.88;;;12.08;67.24
8717;BME280;4395;48.554;8.820;2023-10-31T10:49:11;94881.75;;;11.92;66.91
8717;BME280;4395;48.554;8.820;2023-10-31T10:51:20;94879.44;;;11.90;67.77
8717;BME280;4395;48.554;8.820;2023-10-31T10:53:29;94882.16;;;11.99;66.87
8717;BME280;4395;48.554;8.820;2023-10-31T10:55:36;94881.50;;;12.07;67.10
8717;BME280;4395;48.554;8.820;2023-10-31T10:57:46;94888.56;;;12.20;67.26
8717;BME280;4395;48.554;8.820;2023-10-31T10:59:51;94879.22;;;12.19;65.91
8717;BME280;4395;48.554;8.820;2023-10-31T11:01:58;94892.16;;;12.24;65.09
8717;BME280;4395;48.554;8.820;2023-10-31T11:04:03;94891.09;;;12.25;63.71
8717;BME280;4395;48.554;8.820;2023-10-31T11:06:08;94877.19;;;12.30;64.40
8717;BME280;4395;48.554;8.820;2023-10-31T11:08:11;94875.06;;;12.46;63.98
8717;BME280;4395;48.554;8.820;2023-10-31T11:10:16;94885.53;;;12.73;64.20
8717;BME280;4395;48.554;8.820;2023-10-31T11:12:20;94885.88;;;13.08;63.55
8717;BME280;4395;48.554;8.820;2023-10-31T11:14:25;94889.53;;;13.34;63.44
8717;BME280;4395;48.554;8.820;2023-10-31T11:16:31;94889.16;;;13.63;62.30
8717;BME280;4395;48.554;8.820;2023-10-31T11:18:35;94896.81;;;13.59;60.30